Time;durP1;ratioP1;P1;durP2;ratioP2;P2;SDS_P1;SDS_P2;PMS_P1;PMS_P2;Temp;Humidity;BMP_temperature;BMP_pressure;BME280_temperature;BME280_humidity;BME280_pressure;Samples;Min_cycle;Max_cycle;Signal;HPM_P1;HPM_P2
2022/01/20 00:00:32;;;;;;;11.38;6.45;;;;;;;4.94;69.40;102421.59;5013955;28;20127;-93
2022/01/20 00:03:37;;;;;;;12.40;7.30;;;;;;;5.15;69.65;102456.53;4997176;28;20103;-92
2022/01/20 00:20:41;;;;;;;11.73;7.18;;;;;;;5.18;69.50;102446.47;4934055;29;20036;-93
2022/01/20 00:27:12;;;;;;;10.93;6.80;;;;;;;4.72;70.04;102367.63;4998128;28;20100;-91
2022/01/20 00:30:30;;;;;;;12.68;6.35;;;;;;;5.14;69.73;102433.97;4979367;28;20113;-92
2022/01/20 00:39:04;;;;;;;9.50;6.57;;;;;;;4.91;69.86;102396.31;5032379;28;20472;-94
2022/01/20 00:41:40;;;;;;;11.52;6.43;;;;;;;4.99;69.32;102389.31;5012726;28;20057;-94
2022/01/20 00:47:41;;;;;;;11.00;6.20;;;;;;;5.14;69.90;102424.53;5013040;28;20513;-93
2022/01/20 00:50:18;;;;;;;10.07;6.10;;;;;;;5.24;69.27;102408.28;4978773;28;20030;-93
2022/01/20 00:52:58;;;;;;;10.95;6.45;;;;;;;5.09;68.88;102380.03;4978084;28;20064;-93
2022/01/20 00:55:40;;;;;;;10.15;6.45;;;;;;;5.05;69.76;102395.13;4979096;28;20026;-93
2022/01/20 00:58:09;;;;;;;8.48;5.90;;;;;;;5.07;69.76;102401.38;4979470;28;20026;-93
2022/01/20 01:00:55;;;;;;;10.40;6.07;;;;;;;5.12;69.83;102402.75;4994964;28;20069;-93
2022/01/20 01:03:24;;;;;;;10.07;6.43;;;;;;;5.00;69.42;102355.81;4994681;28;20057;-94
2022/01/20 01:06:40;;;;;;;9.63;6.05;;;;;;;5.10;70.19;102388.72;4979035;28;20033;-93
2022/01/20 01:09:10;;;;;;;11.27;6.32;;;;;;;5.03;69.78;102368.16;4995233;28;20414;-94
2022/01/20 01:11:45;;;;;;;9.52;6.05;;;;;;;4.89;69.94;102349.56;4995163;28;20033;-93
2022/01/20 01:14:18;;;;;;;10.50;6.07;;;;;;;5.15;70.03;102379.75;4995674;28;20041;-93
2022/01/20 01:24:46;;;;;;;9.80;5.90;;;;;;;5.18;69.69;102361.94;4998637;28;20038;-94
2022/01/20 01:30:53;;;;;;;8.50;5.72;;;;;;;4.95;69.65;102318.16;5022433;28;20032;-93
2022/01/20 01:33:22;;;;;;;10.05;6.35;;;;;;;5.09;69.62;102330.84;4979019;28;20030;-93
2022/01/20 01:36:18;;;;;;;9.68;6.00;;;;;;;5.15;69.41;102334.84;4978963;28;20113;-93
2022/01/20 01:39:13;;;;;;;11.00;6.25;;;;;;;5.15;69.92;102340.91;4979873;28;20468;-92
2022/01/20 01:42:26;;;;;;;8.20;5.38;;;;;;;5.19;69.65;102332.69;5006880;28;20038;-94
2022/01/20 01:44:54;;;;;;;9.88;5.93;;;;;;;4.94;69.60;102290.47;4994830;28;20058;-94
2022/01/20 01:47:26;;;;;;;8.70;5.85;;;;;;;4.90;70.10;102291.81;4979028;28;20137;-93
2022/01/20 01:49:59;;;;;;;8.45;5.70;;;;;;;4.87;70.04;102286.34;4978714;28;20058;-94
2022/01/20 01:52:30;;;;;;;10.23;5.90;;;;;;;5.00;70.13;102298.84;4994429;28;20026;-94
2022/01/20 01:55:05;;;;;;;8.93;6.10;;;;;;;5.03;70.27;102312.09;4994282;28;20035;-93
2022/01/20 01:57:38;;;;;;;9.65;5.95;;;;;;;4.77;70.11;102249.03;4994990;28;20030;-93
2022/01/20 02:00:12;;;;;;;10.05;6.15;;;;;;;5.19;69.58;102303.31;4979401;28;20499;-93
2022/01/20 02:02:39;;;;;;;9.10;5.70;;;;;;;4.98;69.32;102256.38;4978668;28;20065;-93
2022/01/20 02:05:18;;;;;;;9.15;5.78;;;;;;;4.92;69.24;102234.13;4978128;28;20058;-92
2022/01/20 02:19:26;;;;;;;11.45;5.20;;;;;;;4.88;69.35;102225.13;4997661;28;20037;-93
2022/01/20 02:22:03;;;;;;;9.65;5.05;;;;;;;4.93;69.77;102230.75;4995825;28;20126;-93
2022/01/20 02:24:31;;;;;;;7.20;5.10;;;;;;;5.16;69.84;102270.22;4979177;28;20030;-93
2022/01/20 02:27:04;;;;;;;9.63;5.90;;;;;;;5.03;68.98;102231.84;4978011;28;20087;-93
2022/01/20 02:32:55;;;;;;;9.30;5.30;;;;;;;5.14;69.62;102252.72;4976108;28;20570;-92
2022/01/20 02:35:59;;;;;;;9.80;5.47;;;;;;;5.19;69.40;102267.97;4963874;28;20096;-94
2022/01/20 02:50:20;;;;;;;8.18;5.15;;;;;;;5.14;69.53;102226.81;4995283;28;20103;-93
2022/01/20 02:53:03;;;;;;;9.53;5.50;;;;;;;5.26;69.18;102238.41;4994103;28;20034;-93
2022/01/20 02:55:57;;;;;;;9.43;5.55;;;;;;;5.16;69.85;102240.81;4977294;28;20332;-93
2022/01/20 02:58:39;;;;;;;10.32;5.20;;;;;;;5.14;69.54;102227.72;4993763;28;20037;-93
2022/01/20 03:01:23;;;;;;;8.05;5.05;;;;;;;4.97;69.07;102188.91;4977125;28;20034;-94
2022/01/20 03:03:58;;;;;;;8.48;5.07;;;;;;;5.08;69.52;102222.88;4977525;28;20031;-94
2022/01/20 03:06:30;;;;;;;7.78;4.82;;;;;;;5.01;69.46;102196.22;4977654;28;20037;-92
2022/01/20 03:09:02;;;;;;;8.88;4.88;;;;;;;5.19;69.53;102218.75;4996906;28;20029;-93
2022/01/20 03:12:04;;;;;;;8.10;4.78;;;;;;;5.21;69.51;102216.31;5008821;28;20052;-92
2022/01/20 03:14:31;;;;;;;8.43;5.53;;;;;;;5.01;69.46;102171.22;4994140;28;20473;-93
2022/01/20 03:16:58;;;;;;;10.95;5.60;;;;;;;4.84;69.66;102153.13;4977225;28;20102;-93
2022/01/20 03:20:05;;;;;;;7.72;4.85;;;;;;;5.17;69.74;102206.41;4977064;28;20117;-90
2022/01/20 03:22:31;;;;;;;8.05;5.13;;;;;;;4.99;69.20;102177.03;4973979;28;20054;-93
2022/01/20 03:25:04;;;;;;;7.72;5.18;;;;;;;5.18;69.40;102203.97;4984061;28;20034;-96
2022/01/20 03:33:43;;;;;;;9.32;4.53;;;;;;;5.22;69.33;102187.97;5016215;28;20111;-96
2022/01/20 03:36:27;;;;;;;7.50;5.43;;;;;;;5.21;69.37;102195.59;5322777;22;20104;-91
2022/01/20 03:39:15;;;;;;;7.50;4.40;;;;;;;5.14;69.66;102191.47;4996275;28;20038;-92
2022/01/20 03:41:59;;;;;;;;;;;;;;;5.26;69.04;102181.41;5012486;28;20498;-90
2022/01/20 03:44:47;;;;;;;7.85;4.68;;;;;;;5.20;69.23;102191.16;4996204;28;19914;-93
2022/01/20 03:47:13;;;;;;;7.63;4.80;;;;;;;5.14;69.66;102195.75;4996224;28;20037;-91
2022/01/20 03:49:52;;;;;;;7.68;4.47;;;;;;;4.92;68.89;102130.59;4995529;28;20030;-92
2022/01/20 03:52:20;;;;;;;8.73;4.90;;;;;;;4.97;69.25;102150.06;4998350;28;20133;-93
2022/01/20 03:58:07;;;;;;;8.02;4.35;;;;;;;4.67;69.59;102110.03;4993681;28;20075;-93
2022/01/20 04:00:53;;;;;;;7.30;4.65;;;;;;;5.04;70.29;102188.75;4976425;28;20392;-92
2022/01/20 04:03:21;;;;;;;7.03;4.20;;;;;;;4.90;70.16;102165.00;4976482;28;20037;-92
2022/01/20 04:05:56;;;;;;;7.40;4.90;;;;;;;5.09;70.02;102196.19;4981672;28;20034;-94
2022/01/20 04:08:47;;;;;;;8.00;4.72;;;;;;;5.09;69.67;102190.13;4996857;28;20521;-92
2022/01/20 04:11:35;;;;;;;8.75;5.38;;;;;;;5.01;69.90;102181.56;4995873;28;20097;-94
2022/01/20 04:14:03;;;;;;;7.88;4.95;;;;;;;4.83;70.27;102151.31;5012001;28;20084;-92
2022/01/20 04:16:50;;;;;;;8.57;5.15;;;;;;;5.01;70.17;102189.34;4994703;28;20033;-92
2022/01/20 04:19:30;;;;;;;8.00;4.55;;;;;;;4.78;70.36;102149.91;4997394;28;20025;-92
2022/01/20 04:22:00;;;;;;;7.75;5.05;;;;;;;5.00;70.36;102196.97;4996125;28;20061;-93
2022/01/20 04:27:48;;;;;;;7.70;4.85;;;;;;;4.66;70.34;102123.75;5012984;28;20083;-92
2022/01/20 04:30:15;;;;;;;7.10;4.78;;;;;;;4.61;70.44;102110.34;4995346;28;20498;-93
2022/01/20 04:32:46;;;;;;;7.53;4.75;;;;;;;5.02;70.09;102185.09;4992373;28;20034;-93
2022/01/20 04:35:11;;;;;;;7.63;4.78;;;;;;;5.10;69.66;102181.56;5025521;28;20096;-95
2022/01/20 04:37:43;;;;;;;8.13;4.80;;;;;;;4.63;69.90;102095.88;4998848;28;20072;-93
2022/01/20 04:40:13;;;;;;;7.22;4.80;;;;;;;4.96;70.13;102168.97;4998604;28;20057;-93
2022/01/20 04:43:17;;;;;;;8.43;5.00;;;;;;;5.12;69.96;102171.38;5000192;28;20038;-93
2022/01/20 04:45:51;;;;;;;7.75;4.35;;;;;;;4.89;69.99;102133.81;5021809;28;20030;-92
2022/01/20 04:59:34;;;;;;;7.70;4.68;;;;;;;4.92;69.74;102135.78;5020105;28;20032;-92
2022/01/20 05:02:11;;;;;;;8.05;5.07;;;;;;;4.90;70.06;102138.19;5002549;28;20124;-92
2022/01/20 05:07:40;;;;;;;9.02;4.80;;;;;;;4.90;69.70;102140.78;5036301;28;19924;-91
2022/01/20 05:13:33;;;;;;;8.55;5.07;;;;;;;5.02;69.81;102141.09;5036150;28;20044;-92
2022/01/20 05:16:24;;;;;;;7.47;4.88;;;;;;;5.04;70.06;102158.59;4983491;28;20038;-92
2022/01/20 05:19:08;;;;;;;7.03;4.35;;;;;;;5.09;69.88;102153.88;4998723;28;20069;-92
2022/01/20 05:21:40;;;;;;;8.25;4.63;;;;;;;4.86;69.63;102116.28;4982545;28;20049;-92
2022/01/20 05:24:16;;;;;;;9.75;4.85;;;;;;;4.99;70.11;102157.22;4986936;28;20033;-93
2022/01/20 05:27:14;;;;;;;8.10;4.53;;;;;;;4.94;70.54;102150.69;5002236;28;20128;-93
2022/01/20 05:33:14;;;;;;;7.20;4.55;;;;;;;5.04;69.85;102147.34;5022195;28;20049;-89
2022/01/20 05:36:01;;;;;;;7.95;4.75;;;;;;;5.05;69.57;102154.31;5003363;28;20042;-91
2022/01/20 05:38:33;;;;;;;8.52;4.90;;;;;;;4.86;69.72;102112.78;4993632;28;20046;-91
2022/01/20 05:41:26;;;;;;;8.82;4.57;;;;;;;4.85;70.38;102140.34;4996009;28;20466;-92
2022/01/20 05:43:57;;;;;;;7.63;4.72;;;;;;;4.82;71.13;102136.53;5011178;28;20503;-92
2022/01/20 05:46:37;;;;;;;7.82;4.60;;;;;;;4.74;70.91;102127.09;5029012;28;20392;-90
2022/01/20 05:49:09;;;;;;;6.78;4.47;;;;;;;4.67;70.11;102077.31;5013826;28;20044;-91
2022/01/20 05:51:46;;;;;;;7.18;4.82;;;;;;;4.81;70.01;102109.75;4998423;28;20053;-90
2022/01/20 05:54:40;;;;;;;6.80;4.60;;;;;;;4.98;69.95;102132.09;4998098;28;20022;-90
2022/01/20 05:57:11;;;;;;;8.10;4.50;;;;;;;4.97;70.10;102134.53;5014015;28;20041;-89
2022/01/20 05:59:48;;;;;;;9.35;4.82;;;;;;;4.76;69.63;102087.66;4997166;28;20482;-90
2022/01/20 06:02:36;;;;;;;6.85;4.70;;;;;;;4.86;70.07;102123.13;5013444;28;20026;-89
2022/01/20 06:05:04;;;;;;;8.43;5.22;;;;;;;4.61;69.71;102048.25;5000313;28;20414;-90
2022/01/20 06:07:31;;;;;;;7.35;4.72;;;;;;;4.77;70.21;102086.00;4997263;28;20026;-89
2022/01/20 06:10:08;;;;;;;7.65;4.40;;;;;;;5.01;69.57;102114.28;5013535;28;20025;-91
2022/01/20 06:12:41;;;;;;;7.53;4.90;;;;;;;5.05;69.76;102118.06;4997467;28;20041;-90
2022/01/20 06:15:13;;;;;;;8.00;4.47;;;;;;;5.02;69.64;102116.09;4996913;28;20030;-90
2022/01/20 06:17:40;;;;;;;7.18;4.50;;;;;;;4.75;70.00;102080.66;4994478;28;20099;-89
2022/01/20 06:20:07;;;;;;;8.05;4.85;;;;;;;4.60;69.73;102038.69;4991244;28;20038;-87
2022/01/20 06:22:33;;;;;;;7.40;4.65;;;;;;;4.99;69.60;102104.53;5012430;28;20038;-87
2022/01/20 06:24:58;;;;;;;7.70;4.93;;;;;;;4.89;69.32;102088.13;5014024;28;20037;-88
2022/01/20 06:27:24;;;;;;;6.88;4.53;;;;;;;4.72;69.64;102070.03;5012621;28;20852;-87
2022/01/20 06:29:51;;;;;;;6.32;4.25;;;;;;;4.52;69.99;102041.28;5012557;28;20034;-87
2022/01/20 06:32:18;;;;;;;9.07;5.13;;;;;;;4.69;69.96;102069.72;4984360;28;20094;-88
2022/01/20 06:34:44;;;;;;;8.45;4.82;;;;;;;4.69;70.16;102078.38;4976494;28;20034;-86
2022/01/20 06:37:10;;;;;;;8.18;4.90;;;;;;;4.83;70.25;102103.03;4992927;28;20581;-88
2022/01/20 06:39:35;;;;;;;7.45;4.80;;;;;;;4.84;70.22;102101.34;5009443;28;20045;-87
2022/01/20 06:42:01;;;;;;;7.10;4.60;;;;;;;4.94;69.33;102093.75;5012369;28;20801;-87
2022/01/20 06:44:27;;;;;;;8.63;4.95;;;;;;;4.62;69.98;102044.00;5012722;28;20629;-87
2022/01/20 06:46:54;;;;;;;9.35;5.10;;;;;;;4.55;69.38;102034.75;5013787;28;20746;-87
2022/01/20 06:49:21;;;;;;;8.13;5.05;;;;;;;5.03;69.77;102130.88;5012361;28;20068;-88
2022/01/20 06:51:47;;;;;;;9.05;5.47;;;;;;;4.92;69.72;102094.34;5012220;28;20022;-88
2022/01/20 06:54:13;;;;;;;8.45;5.32;;;;;;;5.00;70.00;102116.72;4988889;28;20646;-88
2022/01/20 06:56:41;;;;;;;10.85;5.28;;;;;;;4.77;69.96;102075.66;4994945;28;20037;-90
2022/01/20 06:59:11;;;;;;;9.57;5.72;;;;;;;4.78;69.82;102077.47;4995820;28;20510;-90
2022/01/20 07:01:37;;;;;;;8.65;5.38;;;;;;;4.68;70.13;102054.97;4991150;28;20061;-91
2022/01/20 07:04:20;;;;;;;7.50;4.95;;;;;;;4.72;69.69;102059.69;5000397;28;20018;-95
2022/01/20 07:06:48;;;;;;;8.75;5.32;;;;;;;3.93;70.33;101950.19;5022478;28;20065;-95
2022/01/20 07:09:19;;;;;;;8.35;5.45;;;;;;;3.97;70.23;101946.22;5024307;28;20034;-95
2022/01/20 07:11:47;;;;;;;8.63;5.20;;;;;;;4.78;70.60;102096.47;5011534;28;20026;-91
2022/01/20 07:14:15;;;;;;;9.00;5.60;;;;;;;4.02;70.12;101951.09;5014036;28;20026;-95
2022/01/20 07:16:43;;;;;;;9.98;5.47;;;;;;;4.04;70.07;101957.34;4991795;28;20039;-96
2022/01/20 07:19:10;;;;;;;8.05;4.95;;;;;;;4.02;70.66;101958.88;4999158;28;20030;-93
2022/01/20 07:21:37;;;;;;;9.15;5.55;;;;;;;4.79;70.80;102100.91;4998229;28;20041;-94
2022/01/20 07:24:07;;;;;;;10.07;5.90;;;;;;;4.50;70.46;102035.94;4997930;28;20045;-94
2022/01/20 07:26:39;;;;;;;8.15;5.60;;;;;;;4.99;70.21;102083.81;4997434;28;20498;-93
2022/01/20 07:29:12;;;;;;;10.80;5.57;;;;;;;4.88;70.14;102057.81;5013115;28;20030;-93
2022/01/20 07:31:40;;;;;;;8.85;5.47;;;;;;;4.97;70.67;102072.41;4994592;28;20068;-92
2022/01/20 07:34:06;;;;;;;8.98;5.15;;;;;;;4.56;69.98;101981.31;4995470;28;20033;-92
2022/01/20 07:36:31;;;;;;;8.57;5.10;;;;;;;4.45;70.17;101949.22;5003592;28;20046;-93
2022/01/20 07:38:57;;;;;;;11.30;6.13;;;;;;;4.09;70.19;101898.34;4990667;28;20027;-93
2022/01/20 07:41:26;;;;;;;7.75;5.25;;;;;;;5.08;69.75;102067.53;5013023;28;20112;-94
2022/01/20 07:44:11;;;;;;;11.00;5.70;;;;;;;5.12;70.25;102066.13;4995181;28;20503;-94
2022/01/20 07:47:03;;;;;;;8.50;5.30;;;;;;;5.12;69.84;102067.78;4977773;28;20508;-95
2022/01/20 07:49:37;;;;;;;9.45;6.05;;;;;;;4.72;70.55;102009.56;4977552;28;20492;-94
2022/01/20 07:52:03;;;;;;;8.15;5.25;;;;;;;4.95;70.21;102040.28;4996329;28;20034;-92
2022/01/20 07:54:43;;;;;;;7.80;5.10;;;;;;;5.31;69.01;102066.22;4995328;28;20034;-95
2022/01/20 07:57:17;;;;;;;8.13;5.38;;;;;;;5.45;68.71;102060.66;4995487;28;20033;-94
2022/01/20 07:59:50;;;;;;;7.65;5.00;;;;;;;5.13;69.09;102041.16;4985347;28;20030;-94
2022/01/20 08:02:22;;;;;;;7.63;5.00;;;;;;;4.96;70.18;102036.94;4994984;28;20116;-92
2022/01/20 08:04:57;;;;;;;10.10;5.63;;;;;;;5.07;70.04;102060.50;5013186;28;20109;-92
2022/01/20 08:07:31;;;;;;;8.77;5.10;;;;;;;5.13;69.84;102036.88;5013553;28;20029;-93
2022/01/20 08:10:03;;;;;;;6.85;5.10;;;;;;;5.14;69.70;102043.88;4995885;28;20060;-93
2022/01/20 08:12:29;;;;;;;7.57;4.90;;;;;;;5.18;69.91;102056.34;5011954;28;20033;-89
2022/01/20 08:14:58;;;;;;;10.20;5.38;;;;;;;5.06;69.69;102018.94;4994499;28;20037;-91
2022/01/20 08:17:30;;;;;;;8.32;5.13;;;;;;;5.22;69.49;102049.78;4993258;28;20522;-93
2022/01/20 08:20:05;;;;;;;8.27;5.00;;;;;;;5.27;69.71;102044.31;5005994;28;20038;-90
2022/01/20 08:22:34;;;;;;;6.85;4.45;;;;;;;5.51;68.23;102047.41;4994717;28;20117;-89
2022/01/20 08:25:23;;;;;;;8.57;5.60;;;;;;;5.53;67.79;102043.28;5007859;28;20030;-92
2022/01/20 08:27:54;;;;;;;10.18;4.82;;;;;;;5.23;69.26;102044.78;5011398;28;20030;-93
2022/01/20 08:30:21;;;;;;;7.25;4.95;;;;;;;4.80;69.44;101970.72;5011071;28;20036;-93
2022/01/20 08:32:59;;;;;;;6.85;4.50;;;;;;;5.29;68.71;102032.41;4984376;28;20126;-94
2022/01/20 08:35:33;;;;;;;6.68;4.45;;;;;;;5.28;68.68;102042.63;4994977;28;20034;-91
2022/01/20 08:38:03;;;;;;;9.32;4.90;;;;;;;5.48;68.53;102048.03;4994196;28;20046;-90
2022/01/20 08:40:55;;;;;;;9.43;4.80;;;;;;;5.60;68.29;102049.94;4995135;28;20032;-90
2022/01/20 08:44:13;;;;;;;7.47;4.30;;;;;;;5.43;68.56;102058.72;4993881;28;20522;-94
2022/01/20 08:47:21;;;;;;;7.53;4.50;;;;;;;5.60;68.11;102052.53;5011479;28;20022;-92
2022/01/20 08:49:50;;;;;;;7.65;4.68;;;;;;;5.51;68.90;102052.59;5012164;28;20053;-93
2022/01/20 08:52:21;;;;;;;7.78;4.53;;;;;;;5.12;70.51;102050.56;4997197;28;20042;-95
2022/01/20 08:54:58;;;;;;;7.07;4.60;;;;;;;5.25;68.67;102021.63;5011366;28;20042;-93
2022/01/20 08:57:33;;;;;;;6.50;4.53;;;;;;;5.29;68.66;102013.34;4992236;28;20034;-94
2022/01/20 09:00:22;;;;;;;7.72;4.60;;;;;;;5.30;69.78;102043.69;4990212;28;20034;-95
2022/01/20 09:06:10;;;;;;;6.35;4.35;;;;;;;5.41;69.30;102030.06;5012712;28;20091;-94
2022/01/20 09:08:35;;;;;;;8.20;4.37;;;;;;;4.84;69.96;101967.69;5013129;28;20025;-94
2022/01/20 09:11:19;;;;;;;8.13;4.50;;;;;;;5.06;69.81;101988.78;5011695;28;20277;-93
2022/01/20 09:16:46;;;;;;;7.60;4.22;;;;;;;5.36;69.22;101986.38;5013039;28;20580;-94
2022/01/20 09:19:32;;;;;;;7.63;4.57;;;;;;;5.60;69.15;102017.16;5011755;28;20113;-90
2022/01/20 09:22:12;;;;;;;10.23;4.90;;;;;;;5.33;70.42;102005.09;4995037;28;20041;-93
2022/01/20 09:24:45;;;;;;;8.60;4.45;;;;;;;5.54;69.05;102014.00;4998196;28;20037;-93
2022/01/20 09:27:17;;;;;;;8.02;4.38;;;;;;;5.29;69.31;101969.31;4999136;28;20054;-96
2022/01/20 09:29:53;;;;;;;7.20;4.50;;;;;;;5.14;70.13;101970.47;4998155;28;20109;-95
2022/01/20 09:32:21;;;;;;;8.02;4.30;;;;;;;5.40;68.92;101980.72;5002014;28;20030;-94
2022/01/20 09:34:48;;;;;;;8.85;4.88;;;;;;;5.21;69.73;101955.66;5001655;28;20025;-93
2022/01/20 09:37:14;;;;;;;7.28;4.55;;;;;;;5.35;69.27;101956.94;5005734;28;20110;-94
2022/01/20 09:40:00;;;;;;;12.77;4.65;;;;;;;5.47;70.78;101993.47;5002813;28;20090;-94
2022/01/20 09:42:26;;;;;;;9.15;4.68;;;;;;;5.49;70.13;101946.19;5004456;28;20034;-92
2022/01/20 09:45:04;;;;;;;7.82;4.47;;;;;;;5.66;70.13;101962.41;5002054;28;20121;-95
2022/01/20 09:47:29;;;;;;;10.00;4.57;;;;;;;5.72;69.81;101960.41;5002042;28;20038;-95
2022/01/20 09:49:59;;;;;;;7.22;4.45;;;;;;;5.68;69.34;101915.13;5007156;28;20093;-94
2022/01/20 09:52:33;;;;;;;9.07;4.97;;;;;;;5.60;70.15;101948.88;5027050;28;20049;-93
2022/01/20 09:55:00;;;;;;;10.07;4.78;;;;;;;5.81;69.75;101945.69;5030601;28;20029;-92
2022/01/20 09:57:25;;;;;;;10.27;4.72;;;;;;;5.79;70.12;101917.81;5016479;28;20022;-85
2022/01/20 10:00:03;;;;;;;7.70;4.80;;;;;;;5.85;69.92;101923.56;5010104;28;20022;-94
2022/01/20 10:02:30;;;;;;;11.25;5.03;;;;;;;5.78;70.18;101909.13;5006068;28;20040;-94
2022/01/20 10:05:33;;;;;;;12.93;4.55;;;;;;;5.92;69.77;101910.38;5001540;28;20077;-94
2022/01/20 10:08:09;;;;;;;12.50;4.90;;;;;;;5.90;70.77;101904.13;5015787;28;20106;-94
2022/01/20 10:14:05;;;;;;;12.70;4.88;;;;;;;5.87;70.27;101890.91;5019346;28;20042;-93
2022/01/20 10:16:33;;;;;;;8.27;4.72;;;;;;;5.85;69.99;101875.19;5017762;28;20093;-94
2022/01/20 10:19:02;;;;;;;8.98;5.15;;;;;;;5.95;70.29;101883.84;4988609;28;20034;-95
2022/01/20 10:25:17;;;;;;;12.82;5.13;;;;;;;6.00;70.00;101875.72;5015827;28;20065;-94
2022/01/20 10:27:50;;;;;;;9.38;4.90;;;;;;;5.92;70.47;101864.59;5014904;28;20041;-93
2022/01/20 10:30:16;;;;;;;11.57;5.03;;;;;;;5.87;70.01;101860.69;4998865;28;20476;-94
2022/01/20 10:32:52;;;;;;;9.95;4.70;;;;;;;6.03;69.80;101864.69;4999490;28;20037;-94
2022/01/20 10:35:33;;;;;;;9.35;4.65;;;;;;;5.86;70.25;101837.22;5014780;28;20130;-94
2022/01/20 10:38:13;;;;;;;10.98;5.63;;;;;;;6.01;70.23;101853.28;4999650;28;20046;-94
2022/01/20 10:41:19;;;;;;;10.15;4.93;;;;;;;6.07;69.72;101861.59;5000410;28;20046;-92
2022/01/20 10:44:16;;;;;;;10.82;4.80;;;;;;;6.07;69.93;101854.72;5015353;28;20033;-93
2022/01/20 10:46:58;;;;;;;9.43;4.57;;;;;;;6.00;69.91;101818.66;5015852;28;20100;-93
2022/01/20 10:49:43;;;;;;;11.32;4.80;;;;;;;6.08;69.64;101837.50;5015763;28;20494;-93
2022/01/20 10:52:58;;;;;;;11.75;4.65;;;;;;;6.15;70.20;101824.31;4998295;28;20026;-94
2022/01/20 10:55:34;;;;;;;8.05;4.88;;;;;;;5.96;70.98;101803.59;5015818;28;20072;-93
2022/01/20 10:58:23;;;;;;;9.57;4.75;;;;;;;6.00;70.73;101817.75;4998634;28;20491;-93
2022/01/20 11:01:04;;;;;;;9.63;5.03;;;;;;;5.84;70.30;101776.56;5010370;28;20036;-94
2022/01/20 11:03:55;;;;;;;9.02;4.80;;;;;;;6.13;69.82;101818.06;4998331;28;20037;-95
2022/01/20 11:06:21;;;;;;;11.10;5.25;;;;;;;5.90;70.37;101766.72;5005529;28;20556;-93
2022/01/20 11:08:48;;;;;;;12.52;5.22;;;;;;;6.14;70.50;101809.53;4997454;28;20044;-94
2022/01/20 11:11:15;;;;;;;9.77;5.03;;;;;;;6.10;70.65;101810.03;4996500;28;20034;-93
2022/01/20 11:13:46;;;;;;;12.80;5.60;;;;;;;6.08;70.51;101777.88;5013759;28;20064;-94
2022/01/20 11:16:18;;;;;;;8.88;4.55;;;;;;;6.04;69.56;101752.44;4996963;28;20033;-93
2022/01/20 11:18:50;;;;;;;7.82;4.90;;;;;;;5.94;70.20;101742.91;4996880;28;20041;-94
2022/01/20 11:21:26;;;;;;;8.95;4.80;;;;;;;6.03;70.64;101755.78;4996798;28;20026;-93
2022/01/20 11:23:56;;;;;;;10.52;4.97;;;;;;;5.78;70.32;101758.78;4995527;28;20037;-94
2022/01/20 11:26:24;;;;;;;9.57;5.25;;;;;;;6.19;70.76;101787.50;4997181;28;20057;-94
2022/01/20 11:29:09;;;;;;;8.00;4.63;;;;;;;6.17;69.97;101772.59;4998811;28;20407;-95
2022/01/20 11:31:35;;;;;;;9.23;4.85;;;;;;;5.84;70.65;101701.38;5013355;28;20084;-93
2022/01/20 11:34:16;;;;;;;8.65;5.10;;;;;;;6.11;69.96;101734.94;4996939;28;20037;-94
2022/01/20 11:36:42;;;;;;;8.73;5.15;;;;;;;6.23;71.04;101739.41;4996764;28;20046;-90
2022/01/20 11:39:24;;;;;;;9.85;4.85;;;;;;;6.05;70.09;101716.28;4996756;28;20064;-93
2022/01/20 11:41:52;;;;;;;10.07;5.78;;;;;;;6.09;70.94;101695.00;4996134;28;20037;-94
2022/01/20 11:44:26;;;;;;;11.13;4.93;;;;;;;6.13;70.21;101709.16;5012669;28;20080;-94
2022/01/20 11:47:03;;;;;;;9.57;4.88;;;;;;;6.37;70.31;101731.13;4998593;28;20034;-94
2022/01/20 11:49:50;;;;;;;7.50;4.70;;;;;;;6.39;70.54;101739.97;5011711;28;20479;-94
2022/01/20 11:52:34;;;;;;;;;;;;;;;6.43;69.90;101725.53;5000964;28;20038;-94
2022/01/20 11:55:09;;;;;;;9.57;4.45;;;;;;;6.36;71.30;101726.69;5012893;28;19919;-93
2022/01/20 11:57:46;;;;;;;7.93;4.53;;;;;;;6.22;71.15;101683.09;4997875;28;20030;-94
2022/01/20 12:00:28;;;;;;;;;;;;;;;6.48;70.38;101713.88;4996273;28;20038;-95
2022/01/20 12:03:09;;;;;;;8.75;4.65;;;;;;;5.99;73.10;101687.22;4996556;28;19913;-95
2022/01/20 12:06:22;;;;;;;9.32;4.88;;;;;;;6.44;71.92;101697.13;4994210;28;20030;-91
2022/01/20 12:12:25;;;;;;;9.55;4.47;;;;;;;6.39;71.48;101688.06;5011034;28;20571;-92
2022/01/20 12:15:22;;;;;;;7.78;4.78;;;;;;;6.41;69.30;101690.78;5008782;28;20034;-93
2022/01/20 12:17:54;;;;;;;10.27;4.75;;;;;;;6.52;69.28;101685.72;5009641;28;20479;-94
2022/01/20 12:20:24;;;;;;;9.82;4.70;;;;;;;6.20;68.37;101630.19;4992764;28;20034;-94
2022/01/20 12:22:51;;;;;;;9.07;4.40;;;;;;;5.92;69.56;101604.47;5006723;28;20045;-93
2022/01/20 12:25:27;;;;;;;7.40;4.90;;;;;;;6.38;69.33;101662.88;4992460;28;20030;-90
2022/01/20 12:31:20;;;;;;;10.65;4.57;;;;;;;6.35;69.54;101659.13;5004116;28;20295;-92
2022/01/20 12:34:14;;;;;;;9.32;4.15;;;;;;;6.70;68.67;101699.34;4995453;28;20034;-94
2022/01/20 12:36:39;;;;;;;9.40;4.40;;;;;;;6.42;69.34;101682.22;4995683;28;20046;-87
2022/01/20 12:39:32;;;;;;;7.70;4.55;;;;;;;6.67;68.51;101690.41;5014010;28;20517;-92
2022/01/20 12:42:01;;;;;;;7.95;4.15;;;;;;;6.55;69.23;101691.97;5013664;28;20037;-89
2022/01/20 12:45:02;;;;;;;5.95;4.35;;;;;;;6.33;69.54;101646.03;5013323;28;20586;-92
2022/01/20 12:47:49;;;;;;;6.95;4.57;;;;;;;6.48;70.13;101696.63;5007867;28;20025;-90
2022/01/20 12:50:16;;;;;;;7.80;4.60;;;;;;;6.02;70.04;101616.56;4997091;28;20033;-89
2022/01/20 12:52:51;;;;;;;8.05;4.40;;;;;;;6.42;70.13;101692.59;5033313;28;20511;-92
2022/01/20 12:55:25;;;;;;;6.50;4.30;;;;;;;6.62;68.81;101689.09;5014711;28;20026;-93
2022/01/20 13:01:09;;;;;;;7.50;4.32;;;;;;;6.60;68.28;101677.66;5014339;28;20096;-91
2022/01/20 13:03:40;;;;;;;8.05;4.68;;;;;;;6.26;69.03;101635.91;4982353;28;20093;-90
2022/01/20 13:06:10;;;;;;;8.07;4.57;;;;;;;6.27;69.27;101643.81;5007908;28;20033;-92
2022/01/20 13:08:41;;;;;;;7.93;4.32;;;;;;;6.43;69.49;101664.16;5004991;28;20437;-92
2022/01/20 13:14:48;;;;;;;8.93;4.53;;;;;;;6.58;68.70;101663.66;5021288;28;20416;-92
2022/01/20 13:17:51;;;;;;;8.35;4.40;;;;;;;6.42;69.17;101664.06;5012697;28;20036;-93
2022/01/20 13:21:02;;;;;;;7.07;4.20;;;;;;;6.60;68.76;101672.47;5034094;28;20105;-92
2022/01/20 13:23:57;;;;;;;7.07;4.45;;;;;;;6.43;69.07;101674.56;5014912;28;20034;-93
2022/01/20 13:27:00;;;;;;;7.57;4.25;;;;;;;6.32;70.21;101663.25;5009139;28;20025;-93
2022/01/20 13:30:04;;;;;;;6.97;4.15;;;;;;;6.33;69.94;101666.78;4994626;28;20554;-92
2022/01/20 13:33:18;;;;;;;6.38;4.38;;;;;;;6.30;69.97;101677.78;5017498;28;20029;-93
2022/01/20 13:35:52;;;;;;;6.32;4.05;;;;;;;6.11;70.24;101659.75;5018479;28;20037;-95
2022/01/20 13:38:48;;;;;;;7.07;4.30;;;;;;;6.22;70.32;101676.25;5002672;28;20056;-94
2022/01/20 13:41:22;;;;;;;6.90;4.28;;;;;;;6.19;69.53;101639.66;5009952;28;20049;-96
2022/01/20 13:46:47;;;;;;;9.18;4.50;;;;;;;6.39;69.26;101666.38;5021476;28;21917;-92
2022/01/20 13:49:31;;;;;;;7.97;4.15;;;;;;;6.16;69.02;101622.91;5000490;28;20037;-91
2022/01/20 13:52:10;;;;;;;7.82;4.60;;;;;;;6.20;67.78;101597.41;4999656;28;20033;-93
2022/01/20 13:54:45;;;;;;;7.20;4.03;;;;;;;6.38;67.95;101625.66;5000842;28;20063;-95
2022/01/20 13:57:42;;;;;;;7.78;4.25;;;;;;;6.44;68.49;101663.41;5004472;28;20045;-96
2022/01/20 14:00:25;;;;;;;6.70;4.20;;;;;;;6.22;69.54;101655.50;5014546;28;20025;-93
2022/01/20 14:02:51;;;;;;;8.75;4.63;;;;;;;6.11;69.98;101649.38;4999663;28;20040;-92
2022/01/20 14:05:24;;;;;;;8.48;4.65;;;;;;;5.81;70.40;101610.41;5000531;28;20487;-91
2022/01/20 14:07:56;;;;;;;7.75;4.13;;;;;;;5.98;69.79;101606.72;5001396;28;20040;-93
2022/01/20 14:10:24;;;;;;;7.47;4.28;;;;;;;6.25;68.17;101611.66;4985730;28;20038;-93
2022/01/20 14:12:51;;;;;;;9.90;4.93;;;;;;;6.19;69.32;101637.06;5014243;28;20037;-92
2022/01/20 14:15:19;;;;;;;11.55;4.90;;;;;;;6.22;69.43;101639.94;5001858;28;20067;-91
2022/01/20 14:17:54;;;;;;;7.32;4.72;;;;;;;6.00;70.13;101629.41;5003128;28;20048;-93
2022/01/20 14:20:31;;;;;;;8.02;4.47;;;;;;;6.07;70.15;101646.38;5020632;28;20101;-93
2022/01/20 14:22:59;;;;;;;10.85;4.60;;;;;;;5.98;70.15;101622.28;5011159;28;20037;-92
2022/01/20 14:25:25;;;;;;;8.00;4.50;;;;;;;5.93;70.04;101606.28;5000165;28;20483;-90